Rancho Santa Fe, CA (92067)

5:06 PM PDT on September 20, 2014 (GMT -0700)
Rancho Santa Fe FPD | Change Station
CLOSE
Current Station
Personal Weather Station
Location: Del Mar, CA
Elevation: 269 ft
Nearby Weather Stations

Elev 269 ft 32.99 °N, 117.24 °W | Updated 54 seconds ago

Clear
Clear
73.2 °F
Feels Like 75 °F
N
0.0
Wind Variable Wind from WNW
Gusts 0.0 mph

Today
High -- | Low -- °F
--% Chance of Precip.
Yesterday
High -- | Low -- °F
Precip. -- in
6:35 AM 6:48 PM
Waning Crescent, 10% visible
Pressure 29.88 in
Visibility 10.0 miles
Clouds Clear
Heat Index 75 °F
Dew Point 63 °F
Humidity 70%
Rainfall 0.00 in
Snow Depth 0 in , 0 in , 0 in
UV 2 out of 12
Pollen 5.50 out of 12
Ozone Good
PM2.5 Good
Flu Activity Not available.
METAR KCRQ 202353Z 27006KT 10SM CLR 23/16 A2989 RMK AO2 SLP118 T02280161 10239 20217 56007

More Conditions Fewer Conditions

Pressure 29.88 in
Visibility 10.0 miles
Clouds Clear
Heat Index 75 °F
Dew Point 63 °F
Humidity 70%
Rainfall 0.00 in
Snow Depth 0 in , 0 in , 0 in
UV 2 out of 12
Pollen 5.50 out of 12
Ozone Good
PM2.5 Good
Flu Activity Not available.
METAR KCRQ 202353Z 27006KT 10SM CLR 23/16 A2989 RMK AO2 SLP118 T02280161 10239 20217 56007

More Conditions Fewer Conditions

10-Day Weather Forecast

Almanac

Astronomy

Sep. 20, 2014 Rise Set
Actual Time 6:35 AM PDT 6:48 PM PDT
Civil Twilight 6:11 AM PDT 7:12 PM PDT
Nautical Twilight 5:42 AM PDT 7:41 PM PDT
Astronomical Twilight 5:12 AM PDT 8:10 PM PDT
Moon 3:27 AM PDT (9/20) 4:47 PM PDT (9/20)
Length of Visible Light 13h 01m
Length of Day
12h 12m
Tomorrow will be 2m 1s shorter.
Waning Crescent, 10% of the Moon is Illuminated
Today
Waning Crescent
Sep 24
New
Oct 1
First Quarter
Oct 8
Full
Oct 15
Last Quarter

Today's Extremes

State Highs State Lows

Community

WunderPhotos

Upload Photos

1,754,982 photos uploaded!

WunderBlogs® & News

Nearby

Air Quality

  Air Quality AQ Index Pollutant
Yesterday Good
OZONE
Yesterday Good
PM2.5
Current Good
OZONE
Current Good
PM2.5
Saturday Good
PM2.5
Saturday Good
OZONE
Sunday Good
PM2.5
Sunday Good
OZONE
Monday Moderate
PM2.5
Monday Good
OZONE

Snow Depth

Station Depth Elevation
Summit Meadow 0 in 9122 ft
Leavitt Meadows 0 in 7200 ft
Adin Mountain 0 in 6200 ft
CSS Lab 0 in 6900 ft

Earthquake Activity

City Distance Mag. Time & Date
Aguanga, California 40 miles 2.5 1:38 AM PDT
2014-09-19
Minimum magnitude displayed is 2.5.

Coastal Water Temperatures

Place Temperature
La Jolla, CA 72.0 °F
San Diego, CA 75.9 °F

Nearby Weather Stations